createdAt,value
2023-02-12T00:02:17.945Z,8.20
2023-02-12T00:04:48.256Z,9.40
2023-02-12T00:07:16.393Z,8.90
2023-02-12T00:09:44.477Z,14.40
2023-02-12T00:12:12.611Z,15.90
2023-02-12T00:14:40.669Z,8.40
2023-02-12T00:17:14.779Z,6.70
2023-02-12T00:22:21.983Z,6.20
2023-02-12T00:24:56.215Z,6.10
2023-02-12T00:27:24.740Z,6.20
2023-02-12T00:29:52.799Z,6.30
2023-02-12T00:32:23.753Z,6.10
2023-02-12T00:34:54.692Z,6.30
2023-02-12T00:37:26.688Z,6.60
2023-02-12T00:39:54.968Z,6.60
2023-02-12T00:42:23.148Z,6.20
2023-02-12T00:44:51.502Z,6.80
2023-02-12T00:47:19.847Z,6.00
2023-02-12T00:49:50.766Z,6.20
2023-02-12T00:52:23.704Z,6.80
2023-02-12T00:54:55.374Z,6.10
2023-02-12T00:57:23.477Z,7.40
2023-02-12T01:00:12.489Z,6.00
2023-02-12T01:02:46.567Z,6.60
2023-02-12T01:05:19.654Z,5.70
2023-02-12T01:07:55.448Z,6.00
2023-02-12T01:10:28.131Z,5.80
2023-02-12T01:12:57.828Z,6.00
2023-02-12T01:15:26.550Z,5.80
2023-02-12T01:17:55.365Z,5.80
2023-02-12T01:20:24.380Z,6.30
2023-02-12T01:22:53.579Z,6.10
2023-02-12T01:25:23.606Z,6.30
2023-02-12T01:27:53.975Z,5.50
2023-02-12T01:30:24.981Z,5.70
2023-02-12T01:32:55.616Z,5.60
2023-02-12T01:35:28.189Z,5.10
2023-02-12T01:37:58.930Z,5.60
2023-02-12T01:40:27.651Z,5.60
2023-02-12T01:42:55.784Z,5.80
2023-02-12T01:45:41.452Z,5.30
2023-02-12T01:48:09.841Z,4.90
2023-02-12T01:50:37.935Z,4.70
2023-02-12T01:53:13.479Z,5.10
2023-02-12T01:55:42.380Z,5.40
2023-02-12T01:58:11.191Z,5.40
2023-02-12T02:00:42.393Z,5.60
2023-02-12T02:03:11.188Z,5.30
2023-02-12T02:05:39.264Z,5.40
2023-02-12T02:08:13.002Z,4.90
2023-02-12T02:10:44.650Z,5.20
2023-02-12T02:13:40.113Z,6.20
2023-02-12T02:16:29.561Z,5.20
2023-02-12T02:19:03.187Z,5.10
2023-02-12T02:22:16.928Z,5.20
2023-02-12T02:25:11.820Z,5.20
2023-02-12T02:28:19.667Z,5.90
2023-02-12T02:31:12.339Z,5.60
2023-02-12T02:33:48.122Z,6.30
2023-02-12T02:36:25.836Z,6.10
2023-02-12T02:39:28.745Z,5.60
2023-02-12T02:42:10.512Z,5.60
2023-02-12T02:44:46.467Z,5.80
2023-02-12T02:47:15.090Z,5.30
2023-02-12T02:49:54.633Z,6.40
2023-02-12T02:52:49.303Z,5.80
2023-02-12T02:55:18.602Z,5.20
2023-02-12T02:57:56.254Z,5.50
2023-02-12T03:00:28.786Z,5.20
2023-02-12T03:03:02.963Z,5.80
2023-02-12T03:05:47.039Z,5.70
2023-02-12T03:08:24.207Z,5.50
2023-02-12T03:10:58.299Z,5.10
2023-02-12T03:13:43.684Z,5.40
2023-02-12T03:16:23.430Z,5.30
2023-02-12T03:19:09.278Z,4.70
2023-02-12T03:21:50.189Z,5.40
2023-02-12T03:24:29.674Z,4.90
2023-02-12T03:27:07.937Z,5.20
2023-02-12T03:29:36.687Z,4.60
2023-02-12T03:32:29.854Z,4.90
2023-02-12T03:35:33.271Z,6.20
2023-02-12T03:38:06.385Z,6.10
2023-02-12T03:40:51.119Z,5.40
2023-02-12T03:43:23.366Z,5.00
2023-02-12T03:46:17.356Z,4.70
2023-02-12T03:49:05.628Z,4.10
2023-02-12T03:51:40.932Z,5.30
2023-02-12T03:54:19.724Z,4.90
2023-02-12T03:56:55.212Z,5.50
2023-02-12T03:59:25.876Z,5.50
2023-02-12T04:01:55.144Z,5.50
2023-02-12T04:07:03.005Z,5.30
2023-02-12T04:09:33.503Z,5.90
2023-02-12T04:12:10.752Z,5.50
2023-02-12T04:14:47.042Z,5.20
2023-02-12T04:17:36.468Z,5.70
2023-02-12T04:24:00.722Z,6.60
2023-02-12T04:26:43.991Z,6.70
2023-02-12T04:29:27.624Z,6.40
2023-02-12T04:31:58.395Z,5.70
2023-02-12T04:34:39.114Z,6.60
2023-02-12T04:37:18.536Z,6.20
2023-02-12T04:39:46.607Z,6.50
2023-02-12T04:42:14.933Z,6.80
2023-02-12T04:44:48.908Z,7.10
2023-02-12T04:47:20.740Z,6.10
2023-02-12T04:49:48.875Z,5.70
2023-02-12T04:52:19.240Z,6.90
2023-02-12T04:54:47.347Z,6.40
2023-02-12T04:57:18.180Z,6.80
2023-02-12T04:59:46.172Z,6.20
2023-02-12T05:02:14.208Z,5.60
2023-02-12T05:04:44.972Z,5.70
2023-02-12T05:07:15.382Z,6.00
2023-02-12T05:09:43.448Z,5.70
2023-02-12T05:12:21.240Z,5.70
2023-02-12T05:14:53.695Z,6.30
2023-02-12T05:17:29.614Z,6.00
2023-02-12T05:20:02.825Z,6.30
2023-02-12T05:22:31.130Z,7.10
2023-02-12T05:25:01.725Z,7.10
2023-02-12T05:27:33.290Z,7.20
2023-02-12T05:30:05.726Z,6.90
2023-02-12T05:32:34.093Z,7.10
2023-02-12T05:35:09.056Z,5.90
2023-02-12T05:37:45.203Z,7.00
2023-02-12T05:40:14.774Z,7.40
2023-02-12T05:42:45.595Z,7.10
2023-02-12T05:45:16.740Z,7.40
2023-02-12T05:47:45.013Z,6.70
2023-02-12T05:50:19.581Z,6.90
2023-02-12T05:52:50.333Z,7.60
2023-02-12T05:55:24.827Z,7.70
2023-02-12T05:57:56.423Z,7.90
2023-02-12T06:00:25.456Z,6.80
2023-02-12T06:02:53.652Z,7.00
2023-02-12T06:05:21.831Z,7.30
2023-02-12T06:07:49.974Z,6.90
2023-02-12T06:10:18.237Z,7.40
2023-02-12T06:12:53.470Z,6.50
2023-02-12T06:15:21.826Z,7.20
2023-02-12T06:17:56.414Z,7.00
2023-02-12T06:20:29.775Z,7.00
2023-02-12T06:25:26.112Z,6.50
2023-02-12T06:27:54.153Z,6.60
2023-02-12T06:30:22.279Z,6.90
2023-02-12T06:32:50.886Z,5.80
2023-02-12T06:35:21.582Z,6.50
2023-02-12T06:37:53.331Z,6.80
2023-02-12T06:40:26.481Z,7.10
2023-02-12T06:42:54.871Z,6.70
2023-02-12T06:45:23.254Z,6.40
2023-02-12T06:47:52.519Z,6.50
2023-02-12T06:50:21.484Z,5.10
2023-02-12T06:52:50.817Z,6.60
2023-02-12T06:55:19.798Z,5.90
2023-02-12T06:57:47.891Z,7.10
2023-02-12T07:00:19.696Z,6.40
2023-02-12T07:02:54.022Z,5.40
2023-02-12T07:05:23.445Z,5.10
2023-02-12T07:07:55.818Z,4.70
2023-02-12T07:10:24.368Z,5.50
2023-02-12T07:20:39.841Z,4.60
2023-02-12T07:23:11.824Z,4.10
2023-02-12T07:25:39.927Z,3.70
2023-02-12T07:28:11.382Z,3.90
2023-02-12T07:30:42.516Z,3.40
2023-02-12T07:33:11.260Z,2.20
2023-02-12T07:35:39.569Z,2.20
2023-02-12T07:38:07.618Z,1.80
2023-02-12T07:40:36.307Z,1.60
2023-02-12T07:43:04.633Z,2.00
2023-02-12T07:48:05.900Z,1.20
2023-02-12T07:50:34.647Z,1.70
2023-02-12T07:53:03.206Z,1.40
2023-02-12T07:55:31.535Z,1.10
2023-02-12T07:57:59.599Z,0.60
2023-02-12T08:00:27.818Z,1.30
2023-02-12T08:02:58.317Z,1.00
2023-02-12T08:05:28.023Z,1.00
2023-02-12T08:07:56.777Z,0.90
2023-02-12T08:10:25.205Z,0.80
2023-02-12T08:12:53.241Z,0.70
2023-02-12T08:15:23.095Z,1.00
2023-02-12T08:17:51.441Z,0.80
2023-02-12T08:20:23.830Z,0.80
2023-02-12T08:22:51.920Z,0.80
2023-02-12T08:25:19.937Z,0.70
2023-02-12T08:27:48.266Z,1.30
2023-02-12T08:30:16.646Z,0.80
2023-02-12T08:32:45.346Z,1.30
2023-02-12T08:35:13.460Z,2.10
2023-02-12T08:37:42.241Z,1.70
2023-02-12T08:40:13.475Z,2.00
2023-02-12T08:42:45.320Z,1.40
2023-02-12T08:45:13.341Z,1.30
2023-02-12T08:47:42.618Z,2.50
2023-02-12T08:50:11.011Z,1.70
2023-02-12T08:52:39.045Z,1.60
2023-02-12T08:55:08.942Z,1.90
2023-02-12T08:57:37.807Z,2.00
2023-02-12T09:00:07.005Z,2.00
2023-02-12T09:02:36.398Z,1.70
2023-02-12T09:05:04.795Z,1.50
2023-02-12T09:07:32.956Z,1.80
2023-02-12T09:10:01.098Z,2.10
2023-02-12T09:12:29.589Z,1.40
2023-02-12T09:14:57.773Z,1.40
2023-02-12T09:17:31.755Z,1.80
2023-02-12T09:20:02.422Z,1.40
2023-02-12T09:22:30.611Z,1.20
2023-02-12T09:24:58.887Z,1.50
2023-02-12T09:27:28.650Z,1.50
2023-02-12T09:29:58.417Z,0.90
2023-02-12T09:32:26.451Z,0.40
2023-02-12T09:34:55.466Z,0.80
2023-02-12T09:37:23.997Z,0.70
2023-02-12T09:39:52.141Z,0.40
2023-02-12T09:42:31.740Z,0.30
2023-02-12T09:45:22.522Z,0.40
2023-02-12T09:48:00.208Z,0.50
2023-02-12T09:51:03.732Z,0.70
2023-02-12T09:53:32.415Z,0.50
2023-02-12T09:56:00.614Z,0.50
2023-02-12T09:59:03.071Z,0.90
2023-02-12T10:01:31.998Z,1.00
2023-02-12T10:04:02.082Z,1.90
2023-02-12T10:06:34.189Z,0.90
2023-02-12T10:09:22.647Z,0.80
2023-02-12T10:12:15.094Z,0.90
2023-02-12T10:15:10.693Z,1.50
2023-02-12T10:18:08.752Z,1.90
2023-02-12T10:20:59.094Z,2.60
2023-02-12T10:23:44.013Z,1.70
2023-02-12T10:26:19.766Z,1.40
2023-02-12T10:28:47.896Z,1.00
2023-02-12T10:31:32.285Z,1.70
2023-02-12T10:34:00.619Z,2.10
2023-02-12T10:36:44.364Z,1.00
2023-02-12T10:39:19.718Z,0.90
2023-02-12T10:41:50.352Z,0.70
2023-02-12T10:44:18.758Z,0.80
2023-02-12T10:46:51.304Z,0.50
2023-02-12T10:49:19.637Z,0.60
2023-02-12T10:54:41.088Z,0.60
2023-02-12T10:57:15.365Z,0.60
2023-02-12T10:59:44.476Z,0.50
2023-02-12T11:02:30.087Z,0.80
2023-02-12T11:04:59.741Z,0.80
2023-02-12T11:07:27.946Z,0.90
2023-02-12T11:09:56.657Z,1.10
2023-02-12T11:12:36.679Z,0.90
2023-02-12T11:15:14.971Z,1.00
2023-02-12T11:17:44.679Z,1.10
2023-02-12T11:20:18.666Z,1.20
2023-02-12T11:23:00.326Z,1.10
2023-02-12T11:25:33.516Z,0.80
2023-02-12T11:28:18.708Z,0.90
2023-02-12T11:30:52.161Z,0.90
2023-02-12T11:33:30.785Z,0.90
2023-02-12T11:36:16.501Z,1.40
2023-02-12T11:38:50.170Z,1.50
2023-02-12T11:41:38.318Z,1.30
2023-02-12T11:44:27.100Z,1.00
2023-02-12T11:47:02.251Z,1.30
2023-02-12T11:49:33.313Z,0.90
2023-02-12T11:52:03.956Z,1.10
2023-02-12T11:54:40.971Z,1.10
2023-02-12T11:57:43.263Z,1.20
2023-02-12T12:00:16.810Z,1.10
2023-02-12T12:03:01.587Z,1.20
2023-02-12T12:05:34.762Z,0.90
2023-02-12T12:08:06.625Z,1.10
2023-02-12T12:10:44.596Z,1.30
2023-02-12T12:13:16.185Z,1.10
2023-02-12T12:16:09.554Z,0.80
2023-02-12T12:19:01.668Z,1.00
2023-02-12T12:21:42.234Z,1.20
2023-02-12T12:24:37.566Z,1.40
2023-02-12T12:27:47.700Z,1.20
2023-02-12T12:30:25.543Z,0.80
2023-02-12T12:32:55.358Z,0.90
2023-02-12T12:35:33.144Z,1.20
2023-02-12T12:38:03.844Z,1.30
2023-02-12T12:40:42.044Z,1.30
2023-02-12T12:43:30.462Z,1.20
2023-02-12T12:45:59.022Z,1.10
2023-02-12T12:49:03.193Z,0.80
2023-02-12T12:54:17.930Z,1.30
2023-02-12T12:57:27.243Z,1.10
2023-02-12T13:00:21.134Z,1.20
2023-02-12T13:02:52.944Z,1.50
2023-02-12T13:05:41.839Z,2.00
2023-02-12T13:08:29.970Z,1.60
2023-02-12T13:11:13.282Z,1.50
2023-02-12T13:13:46.869Z,1.60
2023-02-12T13:16:34.159Z,1.50
2023-02-12T13:19:16.192Z,1.20
2023-02-12T13:21:45.295Z,1.40
2023-02-12T13:24:24.912Z,1.10
2023-02-12T13:26:58.701Z,1.10
2023-02-12T13:29:34.787Z,1.60
2023-02-12T13:32:16.141Z,1.60
2023-02-12T13:34:45.522Z,1.00
2023-02-12T13:37:19.743Z,1.30
2023-02-12T13:39:48.708Z,1.60
2023-02-12T13:42:36.795Z,1.50
2023-02-12T13:45:18.324Z,2.00
2023-02-12T13:48:00.009Z,2.10
2023-02-12T13:50:43.915Z,1.80
2023-02-12T13:53:33.499Z,1.30
2023-02-12T13:56:02.250Z,1.70
2023-02-12T13:58:42.674Z,1.60
2023-02-12T14:01:16.178Z,2.40
2023-02-12T14:03:44.219Z,1.90
2023-02-12T14:06:13.361Z,2.90
2023-02-12T14:08:47.509Z,2.60
2023-02-12T14:11:21.342Z,2.80
2023-02-12T14:16:29.041Z,2.50
2023-02-12T14:19:35.310Z,2.00
2023-02-12T14:22:14.352Z,1.50
2023-02-12T14:24:48.413Z,2.00
2023-02-12T14:27:28.802Z,1.80
2023-02-12T14:30:29.662Z,1.80
2023-02-12T14:33:07.225Z,2.70
2023-02-12T14:35:43.274Z,2.20
2023-02-12T14:38:20.576Z,2.00
2023-02-12T14:40:54.164Z,1.80
2023-02-12T14:43:59.607Z,2.10
2023-02-12T14:46:28.048Z,1.80
2023-02-12T14:49:06.303Z,1.70
2023-02-12T14:52:05.089Z,1.50
2023-02-12T14:54:41.604Z,2.50
2023-02-12T14:57:31.013Z,1.90
2023-02-12T15:00:18.032Z,1.80
2023-02-12T15:02:50.924Z,2.60
2023-02-12T15:05:26.841Z,2.10
2023-02-12T15:08:07.148Z,2.30
2023-02-12T15:10:40.085Z,2.00
2023-02-12T15:13:25.885Z,2.10
2023-02-12T15:15:57.500Z,2.10
2023-02-12T15:18:41.119Z,1.90
2023-02-12T15:21:28.537Z,1.60
2023-02-12T15:24:16.380Z,2.10
2023-02-12T15:26:56.167Z,3.10
2023-02-12T15:29:27.066Z,3.30
2023-02-12T15:32:02.322Z,3.60
2023-02-12T15:34:32.937Z,4.40
2023-02-12T15:37:02.744Z,3.90
2023-02-12T15:39:43.698Z,3.70
2023-02-12T15:42:32.748Z,2.30
2023-02-12T15:45:18.772Z,2.00
2023-02-12T15:48:15.739Z,2.80
2023-02-12T15:51:08.616Z,1.90
2023-02-12T15:53:37.449Z,1.90
2023-02-12T15:56:05.761Z,2.20
2023-02-12T15:58:42.566Z,2.10
2023-02-12T16:01:25.567Z,2.60
2023-02-12T16:03:56.018Z,2.40
2023-02-12T16:06:25.156Z,2.00
2023-02-12T16:08:58.780Z,2.20
2023-02-12T16:11:27.153Z,2.20
2023-02-12T16:14:03.977Z,1.80
2023-02-12T16:16:46.142Z,2.20
2023-02-12T16:19:27.954Z,4.20
2023-02-12T16:22:14.725Z,5.70
2023-02-12T16:24:47.355Z,4.70
2023-02-12T16:27:21.410Z,8.60
2023-02-12T16:29:55.061Z,5.50
2023-02-12T16:32:34.440Z,8.70
2023-02-12T16:35:26.560Z,4.80
2023-02-12T16:38:18.322Z,9.20
2023-02-12T16:41:55.389Z,12.70
2023-02-12T16:44:29.588Z,11.80
2023-02-12T16:47:00.179Z,7.10
2023-02-12T16:49:28.355Z,6.30
2023-02-12T16:52:20.148Z,9.50
2023-02-12T16:54:49.089Z,11.10
2023-02-12T16:57:18.139Z,17.30
2023-02-12T16:59:47.059Z,18.90
2023-02-12T17:02:16.274Z,20.30
2023-02-12T17:04:44.800Z,20.00
2023-02-12T17:07:24.579Z,20.10
2023-02-12T17:09:53.205Z,21.90
2023-02-12T17:12:21.258Z,22.30
2023-02-12T17:14:50.331Z,22.10
2023-02-12T17:17:18.913Z,24.20
2023-02-12T17:19:48.241Z,28.90
2023-02-12T17:22:24.698Z,27.90
2023-02-12T17:24:54.842Z,24.10
2023-02-12T17:27:22.925Z,18.40
2023-02-12T17:29:53.318Z,16.30
2023-02-12T17:32:24.579Z,14.50
2023-02-12T17:34:57.545Z,14.80
2023-02-12T17:37:25.988Z,13.10
2023-02-12T17:39:57.577Z,16.10
2023-02-12T17:42:26.043Z,14.80
2023-02-12T17:44:54.416Z,13.90
2023-02-12T17:47:22.912Z,11.20
2023-02-12T17:49:51.115Z,8.00
2023-02-12T17:52:24.312Z,7.50
2023-02-12T17:54:54.577Z,8.10
2023-02-12T17:57:22.792Z,10.00
2023-02-12T17:59:50.887Z,12.70
2023-02-12T18:02:23.790Z,17.80
2023-02-12T18:04:52.057Z,16.70
2023-02-12T18:07:20.393Z,13.50
2023-02-12T18:09:52.767Z,15.50
2023-02-12T18:12:21.134Z,16.20
2023-02-12T18:14:49.394Z,17.80
2023-02-12T18:17:18.276Z,17.80
2023-02-12T18:19:48.297Z,18.00
2023-02-12T18:22:17.688Z,16.50
2023-02-12T18:24:49.314Z,16.10
2023-02-12T18:27:18.790Z,15.60
2023-02-12T18:29:47.005Z,14.30
2023-02-12T18:32:17.945Z,17.50
2023-02-12T18:34:46.754Z,19.70
2023-02-12T18:37:15.079Z,21.20
2023-02-12T18:39:43.634Z,20.50
2023-02-12T18:42:12.038Z,18.70
2023-02-12T18:44:42.844Z,18.80
2023-02-12T18:47:11.022Z,17.50
2023-02-12T18:49:39.787Z,22.00
2023-02-12T18:52:11.252Z,19.90
2023-02-12T18:54:41.677Z,20.70
2023-02-12T18:57:09.868Z,17.80
2023-02-12T18:59:38.124Z,16.50
2023-02-12T19:02:07.136Z,14.50
2023-02-12T19:04:35.519Z,13.80
2023-02-12T19:07:04.104Z,11.50
2023-02-12T19:09:38.356Z,11.40
2023-02-12T19:12:12.252Z,12.10
2023-02-12T19:14:40.628Z,14.50
2023-02-12T19:17:09.160Z,15.40
2023-02-12T19:19:40.222Z,14.30
2023-02-12T19:22:10.749Z,13.70
2023-02-12T19:24:46.854Z,13.40
2023-02-12T19:27:16.242Z,14.70
2023-02-12T19:29:44.893Z,12.50
2023-02-12T19:32:14.361Z,12.90
2023-02-12T19:34:42.984Z,11.00
2023-02-12T19:37:13.096Z,11.00
2023-02-12T19:39:44.016Z,11.10
2023-02-12T19:42:15.012Z,10.60
2023-02-12T19:44:43.414Z,12.00
2023-02-12T19:47:11.480Z,10.80
2023-02-12T19:49:42.602Z,9.10
2023-02-12T19:52:11.098Z,12.80
2023-02-12T19:54:39.833Z,9.70
2023-02-12T19:57:13.552Z,9.70
2023-02-12T19:59:43.094Z,9.50
2023-02-12T20:02:11.439Z,9.70
2023-02-12T20:04:41.203Z,9.80
2023-02-12T20:07:11.627Z,8.20
2023-02-12T20:09:40.621Z,9.40
2023-02-12T20:12:11.244Z,9.90
2023-02-12T20:14:41.376Z,10.00
2023-02-12T20:17:12.315Z,13.20
2023-02-12T20:19:40.833Z,12.50
2023-02-12T20:22:14.734Z,13.80
2023-02-12T20:24:43.360Z,13.70
2023-02-12T20:27:13.332Z,14.60
2023-02-12T20:29:43.904Z,12.70
2023-02-12T20:32:13.854Z,14.70
2023-02-12T20:34:50.609Z,15.90
2023-02-12T20:37:20.303Z,16.90
2023-02-12T20:39:48.904Z,17.00
2023-02-12T20:42:17.147Z,16.90
2023-02-12T20:44:49.860Z,15.60
2023-02-12T20:47:18.166Z,14.00
2023-02-12T20:49:47.535Z,13.90
2023-02-12T20:52:18.388Z,14.90
2023-02-12T20:54:52.121Z,14.70
2023-02-12T20:57:21.843Z,13.20
2023-02-12T20:59:52.755Z,15.70
2023-02-12T21:02:20.986Z,14.10
2023-02-12T21:04:51.352Z,13.70
2023-02-12T21:07:19.454Z,13.30
2023-02-12T21:09:48.611Z,12.50
2023-02-12T21:12:17.244Z,11.90
2023-02-12T21:14:45.817Z,10.60
2023-02-12T21:17:17.669Z,11.40
2023-02-12T21:19:47.393Z,10.80
2023-02-12T21:22:18.008Z,10.30
2023-02-12T21:24:46.425Z,10.40
2023-02-12T21:27:14.629Z,11.40
2023-02-12T21:29:42.832Z,11.00
2023-02-12T21:32:11.381Z,11.30
2023-02-12T21:34:40.376Z,9.80
2023-02-12T21:37:08.475Z,10.60
2023-02-12T21:39:37.871Z,11.40
2023-02-12T21:42:05.976Z,11.80
2023-02-12T21:44:37.128Z,11.60
2023-02-12T21:47:08.948Z,13.50
2023-02-12T21:49:43.809Z,13.40
2023-02-12T21:52:17.610Z,12.70
2023-02-12T21:54:46.912Z,13.80
2023-02-12T21:57:20.507Z,12.60
2023-02-12T21:59:53.967Z,11.00
2023-02-12T22:02:25.632Z,10.40
2023-02-12T22:04:55.042Z,9.00
2023-02-12T22:07:23.579Z,8.80
2023-02-12T22:09:56.372Z,7.60
2023-02-12T22:12:24.611Z,8.00
2023-02-12T22:14:52.716Z,9.50
2023-02-12T22:17:23.170Z,9.10
2023-02-12T22:19:51.312Z,10.40
2023-02-12T22:22:19.406Z,12.20
2023-02-12T22:24:47.518Z,12.70
2023-02-12T22:27:19.914Z,13.20
2023-02-12T22:29:50.404Z,11.80
2023-02-12T22:32:23.909Z,12.40
2023-02-12T22:34:53.065Z,12.60
2023-02-12T22:37:24.504Z,11.20
2023-02-12T22:39:53.613Z,11.30
2023-02-12T22:42:21.590Z,11.60
2023-02-12T22:44:50.591Z,12.20
2023-02-12T22:47:18.958Z,13.50
2023-02-12T22:49:47.311Z,13.90
2023-02-12T22:52:15.812Z,13.80
2023-02-12T22:54:47.563Z,14.00
2023-02-12T22:57:18.974Z,16.70
2023-02-12T22:59:49.077Z,15.40
2023-02-12T23:02:21.319Z,15.30
2023-02-12T23:04:52.856Z,15.60
2023-02-12T23:07:20.980Z,14.40
2023-02-12T23:09:49.742Z,12.20
2023-02-12T23:12:21.304Z,12.20
2023-02-12T23:14:49.529Z,12.60
2023-02-12T23:17:18.072Z,11.00
2023-02-12T23:19:46.644Z,12.00
2023-02-12T23:22:15.104Z,12.20
2023-02-12T23:24:43.312Z,12.70
2023-02-12T23:27:13.113Z,14.40
2023-02-12T23:29:44.103Z,16.70
2023-02-12T23:32:13.468Z,14.10
2023-02-12T23:34:42.408Z,13.20
2023-02-12T23:37:10.963Z,14.40
2023-02-12T23:39:39.584Z,14.60
2023-02-12T23:42:07.719Z,13.40
2023-02-12T23:44:39.134Z,12.50
2023-02-12T23:47:07.336Z,12.10
2023-02-12T23:49:37.964Z,11.10
2023-02-12T23:52:06.151Z,12.30
2023-02-12T23:54:34.485Z,11.60
2023-02-12T23:57:03.427Z,12.10
2023-02-12T23:59:32.208Z,11.90
